Lakeland, New Jersey
Current Conditions -  °F | °C
As of 12:54 PM on Tuesday 21 Oct 2014 (Local Time) from KPHL Reporting Station
Scattered Clouds Scattered Clouds  
Wind Chill: 67°   Ceiling: Unl
Heat Index: 67°   Visibility: 10mi
Dew Point: 49°   Wind: 0mph
Humidity: 52%   Direction: NA
Pressure: 29.84"   Gusts: NA
Location:  39.778°N, 75.0552°W
Report Text: KPHL 211654Z 00000KT 10SM FEW036 FEW080 SCT110 19/09 A2984 RMK AO2 SLP104 T01940094
Loading
Personal Weather Stations






























Interactive Weather Map
Tropical Storm Tracking
New forecast layout! Learn more

10-Day Weather Forecast

Advertisements
Track Severe Weather on mobile